Juniper, Georgia
Current Conditions -  °F | °C
As of 7:51 PM on Tuesday 25 Nov 2014 (Local Time) from KCSG Reporting Station
Overcast Overcast  
Wind Chill: 50°   Ceiling: 7500
Heat Index: 50°   Visibility: 10mi
Dew Point: 44°   Wind: 0mph
Humidity: 80%   Direction: NA
Pressure: 30.07"   Gusts: NA
Location:  32.585°N, 84.6173°W
Report Text: KCSG 260051Z 00000KT 10SM BKN075 OVC085 10/07 A3007 RMK AO2 RAE36 PRESFR SLP182 P0000 T01000067
Loading
Personal Weather Stations






























Interactive Weather Map New forecast layout! Learn more

10-Day Weather Forecast

Advertisements
Track Severe Weather on mobile